sensor_id;sensor_type;location;lat;lon;timestamp;P1;durP1;ratioP1;P2;durP2;ratioP2
53521;SDS011;39398;48.382;9.802;2022-09-14T00:00:42;6.55;;;3.90;;
53521;SDS011;39398;48.382;9.802;2022-09-14T00:01:44;5.50;;;3.65;;
53521;SDS011;39398;48.382;9.802;2022-09-14T00:02:45;7.40;;;3.85;;
53521;SDS011;39398;48.382;9.802;2022-09-14T00:03:50;6.07;;;3.92;;
53521;SDS011;39398;48.382;9.802;2022-09-14T00:04:52;4.65;;;3.63;;
53521;SDS011;39398;48.382;9.802;2022-09-14T00:05:54;5.43;;;3.72;;
53521;SDS011;39398;48.382;9.802;2022-09-14T00:06:55;6.30;;;3.78;;
53521;SDS011;39398;48.382;9.802;2022-09-14T00:07:57;8.10;;;3.83;;
53521;SDS011;39398;48.382;9.802;2022-09-14T00:08:59;5.10;;;3.80;;
53521;SDS011;39398;48.382;9.802;2022-09-14T00:10:01;7.13;;;4.20;;
53521;SDS011;39398;48.382;9.802;2022-09-14T00:11:05;5.93;;;3.83;;
53521;SDS011;39398;48.382;9.802;2022-09-14T00:12:07;7.30;;;4.03;;
53521;SDS011;39398;48.382;9.802;2022-09-14T00:13:10;5.22;;;3.38;;
53521;SDS011;39398;48.382;9.802;2022-09-14T00:14:12;6.03;;;3.80;;
53521;SDS011;39398;48.382;9.802;2022-09-14T00:15:14;6.82;;;3.75;;
53521;SDS011;39398;48.382;9.802;2022-09-14T00:16:17;5.80;;;3.60;;
53521;SDS011;39398;48.382;9.802;2022-09-14T00:17:20;6.95;;;3.47;;
53521;SDS011;39398;48.382;9.802;2022-09-14T00:18:21;5.32;;;3.50;;
53521;SDS011;39398;48.382;9.802;2022-09-14T00:19:24;6.32;;;3.75;;
53521;SDS011;39398;48.382;9.802;2022-09-14T00:20:26;5.57;;;3.83;;
53521;SDS011;39398;48.382;9.802;2022-09-14T00:21:28;4.57;;;3.42;;
53521;SDS011;39398;48.382;9.802;2022-09-14T00:22:29;5.93;;;3.72;;
53521;SDS011;39398;48.382;9.802;2022-09-14T00:23:31;5.93;;;4.10;;
53521;SDS011;39398;48.382;9.802;2022-09-14T00:24:34;5.03;;;3.40;;
53521;SDS011;39398;48.382;9.802;2022-09-14T00:25:36;6.20;;;3.50;;
53521;SDS011;39398;48.382;9.802;2022-09-14T00:26:38;6.57;;;3.88;;
53521;SDS011;39398;48.382;9.802;2022-09-14T00:27:40;4.85;;;3.83;;
53521;SDS011;39398;48.382;9.802;2022-09-14T00:28:42;6.63;;;3.67;;
53521;SDS011;39398;48.382;9.802;2022-09-14T00:29:45;3.92;;;3.10;;
53521;SDS011;39398;48.382;9.802;2022-09-14T00:30:47;7.47;;;3.80;;
53521;SDS011;39398;48.382;9.802;2022-09-14T00:31:48;5.93;;;4.07;;
53521;SDS011;39398;48.382;9.802;2022-09-14T00:32:50;6.03;;;3.63;;
53521;SDS011;39398;48.382;9.802;2022-09-14T00:33:52;4.82;;;3.90;;
53521;SDS011;39398;48.382;9.802;2022-09-14T00:34:54;5.78;;;3.72;;
53521;SDS011;39398;48.382;9.802;2022-09-14T00:35:55;4.47;;;3.45;;
53521;SDS011;39398;48.382;9.802;2022-09-14T00:37:04;4.90;;;4.40;;
53521;SDS011;39398;48.382;9.802;2022-09-14T00:38:05;8.10;;;4.93;;
53521;SDS011;39398;48.382;9.802;2022-09-14T00:39:07;8.43;;;4.80;;
53521;SDS011;39398;48.382;9.802;2022-09-14T00:40:09;7.45;;;4.72;;
53521;SDS011;39398;48.382;9.802;2022-09-14T00:41:13;6.70;;;4.22;;
53521;SDS011;39398;48.382;9.802;2022-09-14T00:42:19;8.43;;;4.85;;
53521;SDS011;39398;48.382;9.802;2022-09-14T00:43:21;6.78;;;4.15;;
53521;SDS011;39398;48.382;9.802;2022-09-14T00:46:00;6.88;;;4.05;;
53521;SDS011;39398;48.382;9.802;2022-09-14T00:47:02;6.28;;;4.60;;
53521;SDS011;39398;48.382;9.802;2022-09-14T00:48:03;6.13;;;4.30;;
53521;SDS011;39398;48.382;9.802;2022-09-14T00:49:06;7.60;;;4.32;;
53521;SDS011;39398;48.382;9.802;2022-09-14T00:50:10;7.28;;;4.13;;
53521;SDS011;39398;48.382;9.802;2022-09-14T00:51:12;9.88;;;4.53;;
53521;SDS011;39398;48.382;9.802;2022-09-14T00:52:16;5.03;;;4.22;;
53521;SDS011;39398;48.382;9.802;2022-09-14T00:53:20;4.72;;;3.45;;
53521;SDS011;39398;48.382;9.802;2022-09-14T00:54:22;5.93;;;4.35;;
53521;SDS011;39398;48.382;9.802;2022-09-14T00:55:24;7.47;;;4.05;;
53521;SDS011;39398;48.382;9.802;2022-09-14T00:56:26;5.97;;;3.67;;
53521;SDS011;39398;48.382;9.802;2022-09-14T00:57:29;5.03;;;3.90;;
53521;SDS011;39398;48.382;9.802;2022-09-14T00:58:35;8.05;;;4.20;;
53521;SDS011;39398;48.382;9.802;2022-09-14T00:59:38;5.78;;;4.18;;
53521;SDS011;39398;48.382;9.802;2022-09-14T01:00:41;6.85;;;4.10;;
53521;SDS011;39398;48.382;9.802;2022-09-14T01:01:43;4.75;;;4.05;;
53521;SDS011;39398;48.382;9.802;2022-09-14T01:02:45;4.90;;;4.40;;
53521;SDS011;39398;48.382;9.802;2022-09-14T01:03:47;4.75;;;4.18;;
53521;SDS011;39398;48.382;9.802;2022-09-14T01:04:48;8.38;;;4.40;;
53521;SDS011;39398;48.382;9.802;2022-09-14T01:05:55;6.88;;;4.13;;
53521;SDS011;39398;48.382;9.802;2022-09-14T01:07:05;5.45;;;4.03;;
53521;SDS011;39398;48.382;9.802;2022-09-14T01:08:14;7.68;;;4.10;;
53521;SDS011;39398;48.382;9.802;2022-09-14T01:09:29;6.10;;;3.70;;
53521;SDS011;39398;48.382;9.802;2022-09-14T01:10:42;9.30;;;4.90;;
53521;SDS011;39398;48.382;9.802;2022-09-14T01:11:59;6.68;;;4.30;;
53521;SDS011;39398;48.382;9.802;2022-09-14T01:13:14;4.50;;;4.05;;
53521;SDS011;39398;48.382;9.802;2022-09-14T01:14:24;4.93;;;4.18;;
53521;SDS011;39398;48.382;9.802;2022-09-14T01:15:35;8.23;;;4.20;;
53521;SDS011;39398;48.382;9.802;2022-09-14T01:16:44;8.25;;;4.35;;
53521;SDS011;39398;48.382;9.802;2022-09-14T01:17:52;7.90;;;4.47;;
53521;SDS011;39398;48.382;9.802;2022-09-14T01:18:59;6.25;;;5.07;;
53521;SDS011;39398;48.382;9.802;2022-09-14T01:20:14;6.78;;;4.93;;
53521;SDS011;39398;48.382;9.802;2022-09-14T01:21:22;10.40;;;4.85;;
53521;SDS011;39398;48.382;9.802;2022-09-14T01:22:30;6.55;;;5.07;;
53521;SDS011;39398;48.382;9.802;2022-09-14T01:23:36;10.38;;;4.97;;
53521;SDS011;39398;48.382;9.802;2022-09-14T01:24:47;7.32;;;5.50;;
53521;SDS011;39398;48.382;9.802;2022-09-14T01:26:02;8.18;;;5.95;;
53521;SDS011;39398;48.382;9.802;2022-09-14T01:27:31;8.07;;;5.90;;
53521;SDS011;39398;48.382;9.802;2022-09-14T01:28:37;8.75;;;6.03;;
53521;SDS011;39398;48.382;9.802;2022-09-14T01:29:44;9.68;;;5.65;;
53521;SDS011;39398;48.382;9.802;2022-09-14T01:30:51;6.65;;;5.90;;
53521;SDS011;39398;48.382;9.802;2022-09-14T01:31:54;9.15;;;5.47;;
53521;SDS011;39398;48.382;9.802;2022-09-14T01:33:02;10.05;;;6.55;;
53521;SDS011;39398;48.382;9.802;2022-09-14T01:34:11;9.43;;;7.30;;
53521;SDS011;39398;48.382;9.802;2022-09-14T01:35:17;12.73;;;7.32;;
53521;SDS011;39398;48.382;9.802;2022-09-14T01:36:26;9.18;;;7.53;;
53521;SDS011;39398;48.382;9.802;2022-09-14T01:37:32;13.93;;;7.85;;
53521;SDS011;39398;48.382;9.802;2022-09-14T01:38:37;11.50;;;8.55;;
53521;SDS011;39398;48.382;9.802;2022-09-14T01:39:43;9.35;;;8.38;;
53521;SDS011;39398;48.382;9.802;2022-09-14T01:40:49;9.32;;;8.20;;
53521;SDS011;39398;48.382;9.802;2022-09-14T01:41:51;10.18;;;8.10;;
53521;SDS011;39398;48.382;9.802;2022-09-14T01:42:57;11.05;;;8.48;;
53521;SDS011;39398;48.382;9.802;2022-09-14T01:44:04;12.95;;;8.20;;
53521;SDS011;39398;48.382;9.802;2022-09-14T01:45:10;11.38;;;9.02;;
53521;SDS011;39398;48.382;9.802;2022-09-14T01:46:15;11.80;;;8.07;;
53521;SDS011;39398;48.382;9.802;2022-09-14T01:47:19;10.35;;;8.70;;
53521;SDS011;39398;48.382;9.802;2022-09-14T01:48:25;12.35;;;8.90;;
53521;SDS011;39398;48.382;9.802;2022-09-14T01:49:36;11.00;;;8.82;;
53521;SDS011;39398;48.382;9.802;2022-09-14T01:50:42;11.20;;;8.80;;
53521;SDS011;39398;48.382;9.802;2022-09-14T01:51:46;11.15;;;9.00;;
53521;SDS011;39398;48.382;9.802;2022-09-14T01:52:51;14.88;;;9.45;;
53521;SDS011;39398;48.382;9.802;2022-09-14T01:53:59;12.38;;;8.75;;
53521;SDS011;39398;48.382;9.802;2022-09-14T01:55:08;13.40;;;9.82;;
53521;SDS011;39398;48.382;9.802;2022-09-14T01:56:16;14.88;;;10.15;;
53521;SDS011;39398;48.382;9.802;2022-09-14T01:57:22;16.15;;;10.70;;
53521;SDS011;39398;48.382;9.802;2022-09-14T01:58:31;14.45;;;11.55;;
53521;SDS011;39398;48.382;9.802;2022-09-14T01:59:36;16.02;;;11.25;;
53521;SDS011;39398;48.382;9.802;2022-09-14T02:00:42;18.17;;;12.18;;
53521;SDS011;39398;48.382;9.802;2022-09-14T02:01:46;14.30;;;11.18;;
53521;SDS011;39398;48.382;9.802;2022-09-14T02:02:53;13.93;;;11.35;;
53521;SDS011;39398;48.382;9.802;2022-09-14T02:03:58;15.90;;;11.57;;
53521;SDS011;39398;48.382;9.802;2022-09-14T02:05:06;18.58;;;11.73;;
53521;SDS011;39398;48.382;9.802;2022-09-14T02:06:10;16.83;;;11.02;;
53521;SDS011;39398;48.382;9.802;2022-09-14T02:07:19;16.38;;;10.88;;
53521;SDS011;39398;48.382;9.802;2022-09-14T02:08:20;13.90;;;10.63;;
53521;SDS011;39398;48.382;9.802;2022-09-14T02:09:22;14.35;;;9.77;;
53521;SDS011;39398;48.382;9.802;2022-09-14T02:10:25;14.80;;;9.65;;
53521;SDS011;39398;48.382;9.802;2022-09-14T02:11:27;10.95;;;8.98;;
53521;SDS011;39398;48.382;9.802;2022-09-14T02:12:29;12.30;;;10.30;;
53521;SDS011;39398;48.382;9.802;2022-09-14T02:13:32;12.18;;;8.52;;
53521;SDS011;39398;48.382;9.802;2022-09-14T02:14:34;11.48;;;8.75;;
53521;SDS011;39398;48.382;9.802;2022-09-14T02:15:36;10.52;;;8.07;;
53521;SDS011;39398;48.382;9.802;2022-09-14T02:16:38;9.98;;;7.45;;
53521;SDS011;39398;48.382;9.802;2022-09-14T02:17:41;11.90;;;8.05;;
53521;SDS011;39398;48.382;9.802;2022-09-14T02:18:43;9.85;;;8.10;;
53521;SDS011;39398;48.382;9.802;2022-09-14T02:19:46;8.98;;;7.38;;
53521;SDS011;39398;48.382;9.802;2022-09-14T02:20:52;11.45;;;8.43;;
53521;SDS011;39398;48.382;9.802;2022-09-14T02:21:56;11.25;;;8.43;;
53521;SDS011;39398;48.382;9.802;2022-09-14T02:22:57;11.05;;;8.38;;
53521;SDS011;39398;48.382;9.802;2022-09-14T02:23:59;15.07;;;8.80;;
53521;SDS011;39398;48.382;9.802;2022-09-14T02:25:02;14.80;;;8.38;;
53521;SDS011;39398;48.382;9.802;2022-09-14T02:26:03;11.85;;;8.60;;
53521;SDS011;39398;48.382;9.802;2022-09-14T02:27:05;11.38;;;7.78;;
53521;SDS011;39398;48.382;9.802;2022-09-14T02:28:07;9.98;;;7.95;;
53521;SDS011;39398;48.382;9.802;2022-09-14T02:29:10;9.13;;;7.72;;
53521;SDS011;39398;48.382;9.802;2022-09-14T02:30:12;12.45;;;7.72;;
53521;SDS011;39398;48.382;9.802;2022-09-14T02:31:16;10.52;;;8.07;;
53521;SDS011;39398;48.382;9.802;2022-09-14T02:32:27;11.05;;;8.30;;
53521;SDS011;39398;48.382;9.802;2022-09-14T02:34:45;11.50;;;8.15;;
53521;SDS011;39398;48.382;9.802;2022-09-14T02:35:54;10.70;;;8.30;;
53521;SDS011;39398;48.382;9.802;2022-09-14T02:37:00;10.18;;;7.25;;
53521;SDS011;39398;48.382;9.802;2022-09-14T02:38:12;9.55;;;7.15;;
53521;SDS011;39398;48.382;9.802;2022-09-14T02:39:23;10.10;;;7.32;;
53521;SDS011;39398;48.382;9.802;2022-09-14T02:40:32;12.77;;;6.93;;
53521;SDS011;39398;48.382;9.802;2022-09-14T02:41:36;10.90;;;8.13;;
53521;SDS011;39398;48.382;9.802;2022-09-14T02:42:46;11.18;;;7.50;;
53521;SDS011;39398;48.382;9.802;2022-09-14T02:43:57;12.15;;;7.45;;
53521;SDS011;39398;48.382;9.802;2022-09-14T02:45:07;8.52;;;7.40;;
53521;SDS011;39398;48.382;9.802;2022-09-14T02:46:18;9.25;;;7.72;;
53521;SDS011;39398;48.382;9.802;2022-09-14T02:47:27;10.65;;;7.32;;
53521;SDS011;39398;48.382;9.802;2022-09-14T02:48:34;12.00;;;7.38;;
53521;SDS011;39398;48.382;9.802;2022-09-14T02:49:42;9.27;;;7.45;;
53521;SDS011;39398;48.382;9.802;2022-09-14T02:50:49;10.65;;;6.95;;
53521;SDS011;39398;48.382;9.802;2022-09-14T02:51:59;10.68;;;7.20;;
53521;SDS011;39398;48.382;9.802;2022-09-14T02:53:09;8.18;;;6.63;;
53521;SDS011;39398;48.382;9.802;2022-09-14T02:54:16;7.47;;;6.57;;
53521;SDS011;39398;48.382;9.802;2022-09-14T02:55:24;9.60;;;6.60;;
53521;SDS011;39398;48.382;9.802;2022-09-14T02:56:31;10.27;;;7.22;;
53521;SDS011;39398;48.382;9.802;2022-09-14T02:59:04;7.10;;;6.35;;
53521;SDS011;39398;48.382;9.802;2022-09-14T03:00:08;8.63;;;6.55;;
53521;SDS011;39398;48.382;9.802;2022-09-14T03:01:10;15.05;;;6.35;;
53521;SDS011;39398;48.382;9.802;2022-09-14T03:02:13;8.35;;;6.53;;
53521;SDS011;39398;48.382;9.802;2022-09-14T03:03:16;7.75;;;6.25;;
53521;SDS011;39398;48.382;9.802;2022-09-14T03:04:19;8.07;;;6.15;;
53521;SDS011;39398;48.382;9.802;2022-09-14T03:05:20;10.43;;;6.13;;
53521;SDS011;39398;48.382;9.802;2022-09-14T03:06:22;8.27;;;6.47;;
53521;SDS011;39398;48.382;9.802;2022-09-14T03:07:23;7.43;;;6.10;;
53521;SDS011;39398;48.382;9.802;2022-09-14T03:08:25;8.48;;;5.82;;
53521;SDS011;39398;48.382;9.802;2022-09-14T03:09:27;9.82;;;5.95;;
53521;SDS011;39398;48.382;9.802;2022-09-14T03:10:29;7.82;;;5.22;;
53521;SDS011;39398;48.382;9.802;2022-09-14T03:11:31;7.68;;;5.85;;
53521;SDS011;39398;48.382;9.802;2022-09-14T03:12:32;9.20;;;5.72;;
53521;SDS011;39398;48.382;9.802;2022-09-14T03:13:34;8.75;;;5.22;;
53521;SDS011;39398;48.382;9.802;2022-09-14T03:14:36;8.70;;;5.38;;
53521;SDS011;39398;48.382;9.802;2022-09-14T03:15:39;7.68;;;5.40;;
53521;SDS011;39398;48.382;9.802;2022-09-14T03:16:40;6.50;;;5.25;;
53521;SDS011;39398;48.382;9.802;2022-09-14T03:17:45;9.35;;;5.82;;
53521;SDS011;39398;48.382;9.802;2022-09-14T03:18:46;11.13;;;5.47;;
53521;SDS011;39398;48.382;9.802;2022-09-14T03:19:48;6.93;;;5.47;;
53521;SDS011;39398;48.382;9.802;2022-09-14T03:20:49;7.30;;;5.63;;
53521;SDS011;39398;48.382;9.802;2022-09-14T03:21:51;7.00;;;5.30;;
53521;SDS011;39398;48.382;9.802;2022-09-14T03:22:52;10.05;;;5.30;;
53521;SDS011;39398;48.382;9.802;2022-09-14T03:23:54;9.73;;;5.18;;
53521;SDS011;39398;48.382;9.802;2022-09-14T03:24:55;7.18;;;5.55;;
53521;SDS011;39398;48.382;9.802;2022-09-14T03:25:57;8.63;;;5.50;;
53521;SDS011;39398;48.382;9.802;2022-09-14T03:26:58;8.98;;;5.10;;
53521;SDS011;39398;48.382;9.802;2022-09-14T03:28:00;6.30;;;5.10;;
53521;SDS011;39398;48.382;9.802;2022-09-14T03:29:01;7.10;;;4.95;;
53521;SDS011;39398;48.382;9.802;2022-09-14T03:30:04;7.78;;;5.10;;
53521;SDS011;39398;48.382;9.802;2022-09-14T03:31:08;10.10;;;5.00;;
53521;SDS011;39398;48.382;9.802;2022-09-14T03:32:11;9.15;;;5.40;;
53521;SDS011;39398;48.382;9.802;2022-09-14T03:33:13;9.55;;;4.55;;
53521;SDS011;39398;48.382;9.802;2022-09-14T03:34:14;6.53;;;4.45;;
53521;SDS011;39398;48.382;9.802;2022-09-14T03:35:16;5.75;;;4.55;;
53521;SDS011;39398;48.382;9.802;2022-09-14T03:36:18;5.28;;;4.60;;
53521;SDS011;39398;48.382;9.802;2022-09-14T03:37:20;7.95;;;4.30;;
53521;SDS011;39398;48.382;9.802;2022-09-14T03:38:21;6.07;;;4.38;;
53521;SDS011;39398;48.382;9.802;2022-09-14T03:39:23;8.10;;;4.68;;
53521;SDS011;39398;48.382;9.802;2022-09-14T03:40:24;6.90;;;4.32;;
53521;SDS011;39398;48.382;9.802;2022-09-14T03:41:27;6.25;;;4.53;;
53521;SDS011;39398;48.382;9.802;2022-09-14T03:42:29;9.20;;;4.70;;
53521;SDS011;39398;48.382;9.802;2022-09-14T03:43:30;5.75;;;4.90;;
53521;SDS011;39398;48.382;9.802;2022-09-14T03:44:32;8.25;;;4.18;;
53521;SDS011;39398;48.382;9.802;2022-09-14T03:45:35;6.40;;;4.88;;
53521;SDS011;39398;48.382;9.802;2022-09-14T03:46:38;6.63;;;4.43;;
53521;SDS011;39398;48.382;9.802;2022-09-14T03:47:40;9.50;;;4.43;;
53521;SDS011;39398;48.382;9.802;2022-09-14T03:48:42;7.78;;;4.28;;
53521;SDS011;39398;48.382;9.802;2022-09-14T03:49:44;7.22;;;4.63;;
53521;SDS011;39398;48.382;9.802;2022-09-14T03:50:45;6.32;;;4.50;;
53521;SDS011;39398;48.382;9.802;2022-09-14T03:51:47;7.25;;;5.22;;
53521;SDS011;39398;48.382;9.802;2022-09-14T03:52:48;8.75;;;4.70;;
53521;SDS011;39398;48.382;9.802;2022-09-14T03:53:50;11.20;;;4.82;;
53521;SDS011;39398;48.382;9.802;2022-09-14T03:54:51;7.75;;;4.55;;
53521;SDS011;39398;48.382;9.802;2022-09-14T03:55:53;7.50;;;4.45;;
53521;SDS011;39398;48.382;9.802;2022-09-14T03:56:54;6.72;;;4.80;;
53521;SDS011;39398;48.382;9.802;2022-09-14T03:57:55;7.53;;;4.38;;
53521;SDS011;39398;48.382;9.802;2022-09-14T03:58:57;8.93;;;4.75;;
53521;SDS011;39398;48.382;9.802;2022-09-14T03:59:58;8.13;;;4.47;;
53521;SDS011;39398;48.382;9.802;2022-09-14T04:01:03;6.55;;;4.28;;
53521;SDS011;39398;48.382;9.802;2022-09-14T04:02:06;6.65;;;4.30;;
53521;SDS011;39398;48.382;9.802;2022-09-14T04:03:08;8.50;;;4.95;;
53521;SDS011;39398;48.382;9.802;2022-09-14T04:04:10;9.40;;;4.35;;
53521;SDS011;39398;48.382;9.802;2022-09-14T04:05:11;7.95;;;4.20;;
53521;SDS011;39398;48.382;9.802;2022-09-14T04:06:13;4.57;;;4.10;;
53521;SDS011;39398;48.382;9.802;2022-09-14T04:07:15;5.50;;;3.92;;
53521;SDS011;39398;48.382;9.802;2022-09-14T04:08:17;6.78;;;4.25;;
53521;SDS011;39398;48.382;9.802;2022-09-14T04:09:18;5.57;;;3.85;;
53521;SDS011;39398;48.382;9.802;2022-09-14T04:10:20;7.22;;;4.22;;
53521;SDS011;39398;48.382;9.802;2022-09-14T04:11:22;6.72;;;4.10;;
53521;SDS011;39398;48.382;9.802;2022-09-14T04:12:25;8.30;;;4.18;;
53521;SDS011;39398;48.382;9.802;2022-09-14T04:13:26;7.03;;;4.35;;
53521;SDS011;39398;48.382;9.802;2022-09-14T04:14:27;4.55;;;4.00;;
53521;SDS011;39398;48.382;9.802;2022-09-14T04:15:29;6.88;;;4.50;;
53521;SDS011;39398;48.382;9.802;2022-09-14T04:16:30;7.32;;;4.53;;
53521;SDS011;39398;48.382;9.802;2022-09-14T04:17:33;8.48;;;4.40;;
53521;SDS011;39398;48.382;9.802;2022-09-14T04:18:35;7.10;;;4.03;;
53521;SDS011;39398;48.382;9.802;2022-09-14T04:19:37;4.70;;;4.05;;
53521;SDS011;39398;48.382;9.802;2022-09-14T04:20:38;7.65;;;4.43;;
53521;SDS011;39398;48.382;9.802;2022-09-14T04:21:39;8.02;;;4.07;;
53521;SDS011;39398;48.382;9.802;2022-09-14T04:22:41;7.20;;;4.57;;
53521;SDS011;39398;48.382;9.802;2022-09-14T04:23:43;17.75;;;10.13;;
53521;SDS011;39398;48.382;9.802;2022-09-14T04:25:05;8.13;;;5.70;;
53521;SDS011;39398;48.382;9.802;2022-09-14T04:26:08;8.07;;;4.55;;
53521;SDS011;39398;48.382;9.802;2022-09-14T04:27:10;5.85;;;3.95;;
53521;SDS011;39398;48.382;9.802;2022-09-14T04:28:11;8.10;;;4.65;;
53521;SDS011;39398;48.382;9.802;2022-09-14T04:29:21;5.38;;;4.13;;
53521;SDS011;39398;48.382;9.802;2022-09-14T04:30:22;7.03;;;3.70;;
53521;SDS011;39398;48.382;9.802;2022-09-14T04:31:24;6.45;;;3.47;;
53521;SDS011;39398;48.382;9.802;2022-09-14T04:32:26;7.65;;;4.18;;
53521;SDS011;39398;48.382;9.802;2022-09-14T04:33:35;4.32;;;3.92;;
53521;SDS011;39398;48.382;9.802;2022-09-14T04:34:38;5.65;;;3.83;;
53521;SDS011;39398;48.382;9.802;2022-09-14T04:35:40;7.07;;;4.30;;
53521;SDS011;39398;48.382;9.802;2022-09-14T04:36:41;8.30;;;3.65;;
53521;SDS011;39398;48.382;9.802;2022-09-14T04:37:43;9.07;;;4.15;;
53521;SDS011;39398;48.382;9.802;2022-09-14T04:38:44;4.78;;;3.72;;
53521;SDS011;39398;48.382;9.802;2022-09-14T04:39:46;6.43;;;4.47;;
53521;SDS011;39398;48.382;9.802;2022-09-14T04:40:48;6.65;;;4.45;;
53521;SDS011;39398;48.382;9.802;2022-09-14T04:41:49;8.75;;;4.03;;
53521;SDS011;39398;48.382;9.802;2022-09-14T04:42:51;5.53;;;4.10;;
53521;SDS011;39398;48.382;9.802;2022-09-14T04:43:53;9.00;;;4.60;;
53521;SDS011;39398;48.382;9.802;2022-09-14T04:44:55;6.32;;;4.15;;
53521;SDS011;39398;48.382;9.802;2022-09-14T04:46:00;7.65;;;4.32;;
53521;SDS011;39398;48.382;9.802;2022-09-14T04:47:02;7.00;;;4.35;;
53521;SDS011;39398;48.382;9.802;2022-09-14T04:48:04;6.18;;;4.00;;
53521;SDS011;39398;48.382;9.802;2022-09-14T04:49:07;5.18;;;4.53;;
53521;SDS011;39398;48.382;9.802;2022-09-14T04:50:09;8.25;;;4.50;;
53521;SDS011;39398;48.382;9.802;2022-09-14T04:51:11;6.68;;;4.25;;
53521;SDS011;39398;48.382;9.802;2022-09-14T04:52:14;8.93;;;4.70;;
53521;SDS011;39398;48.382;9.802;2022-09-14T04:53:15;10.50;;;8.45;;
53521;SDS011;39398;48.382;9.802;2022-09-14T04:54:17;12.95;;;8.77;;
53521;SDS011;39398;48.382;9.802;2022-09-14T04:55:18;12.13;;;9.25;;
53521;SDS011;39398;48.382;9.802;2022-09-14T04:56:20;6.20;;;4.78;;
53521;SDS011;39398;48.382;9.802;2022-09-14T04:57:23;5.40;;;4.40;;
53521;SDS011;39398;48.382;9.802;2022-09-14T04:58:24;7.80;;;4.50;;
53521;SDS011;39398;48.382;9.802;2022-09-14T04:59:26;8.30;;;4.60;;
53521;SDS011;39398;48.382;9.802;2022-09-14T05:00:27;6.13;;;4.20;;
53521;SDS011;39398;48.382;9.802;2022-09-14T05:01:29;6.30;;;4.25;;
53521;SDS011;39398;48.382;9.802;2022-09-14T05:02:32;7.13;;;4.43;;
53521;SDS011;39398;48.382;9.802;2022-09-14T05:03:34;6.88;;;4.68;;
53521;SDS011;39398;48.382;9.802;2022-09-14T05:04:37;8.77;;;4.38;;
53521;SDS011;39398;48.382;9.802;2022-09-14T05:05:38;6.38;;;3.90;;
53521;SDS011;39398;48.382;9.802;2022-09-14T05:06:44;5.80;;;4.18;;
53521;SDS011;39398;48.382;9.802;2022-09-14T05:07:46;6.13;;;4.45;;
53521;SDS011;39398;48.382;9.802;2022-09-14T05:08:48;7.75;;;4.57;;
53521;SDS011;39398;48.382;9.802;2022-09-14T05:09:50;6.60;;;4.70;;
53521;SDS011;39398;48.382;9.802;2022-09-14T05:10:53;8.95;;;4.70;;
53521;SDS011;39398;48.382;9.802;2022-09-14T05:11:55;6.43;;;4.90;;
53521;SDS011;39398;48.382;9.802;2022-09-14T05:12:56;7.25;;;4.28;;
53521;SDS011;39398;48.382;9.802;2022-09-14T05:13:58;8.82;;;4.50;;
53521;SDS011;39398;48.382;9.802;2022-09-14T05:15:00;7.63;;;4.53;;
53521;SDS011;39398;48.382;9.802;2022-09-14T05:16:05;8.35;;;4.75;;
53521;SDS011;39398;48.382;9.802;2022-09-14T05:17:07;6.60;;;4.82;;
53521;SDS011;39398;48.382;9.802;2022-09-14T05:18:09;8.80;;;4.90;;
53521;SDS011;39398;48.382;9.802;2022-09-14T05:19:11;8.73;;;4.80;;
53521;SDS011;39398;48.382;9.802;2022-09-14T05:20:16;6.40;;;4.40;;
53521;SDS011;39398;48.382;9.802;2022-09-14T05:21:18;7.72;;;5.15;;
53521;SDS011;39398;48.382;9.802;2022-09-14T05:22:20;7.63;;;4.82;;
53521;SDS011;39398;48.382;9.802;2022-09-14T05:23:22;8.35;;;5.43;;
53521;SDS011;39398;48.382;9.802;2022-09-14T05:24:23;5.80;;;5.10;;
53521;SDS011;39398;48.382;9.802;2022-09-14T05:25:25;9.60;;;5.30;;
53521;SDS011;39398;48.382;9.802;2022-09-14T05:26:27;8.40;;;5.68;;
53521;SDS011;39398;48.382;9.802;2022-09-14T05:27:30;9.13;;;5.57;;
53521;SDS011;39398;48.382;9.802;2022-09-14T05:28:31;18.95;;;10.25;;
53521;SDS011;39398;48.382;9.802;2022-09-14T05:29:34;16.35;;;11.20;;
53521;SDS011;39398;48.382;9.802;2022-09-14T05:30:37;11.90;;;10.13;;
53521;SDS011;39398;48.382;9.802;2022-09-14T05:31:39;11.18;;;8.07;;
53521;SDS011;39398;48.382;9.802;2022-09-14T05:32:41;9.88;;;6.75;;
53521;SDS011;39398;48.382;9.802;2022-09-14T05:33:42;9.52;;;6.30;;
53521;SDS011;39398;48.382;9.802;2022-09-14T05:34:44;9.25;;;6.53;;
53521;SDS011;39398;48.382;9.802;2022-09-14T05:35:47;9.73;;;6.30;;
53521;SDS011;39398;48.382;9.802;2022-09-14T05:36:49;10.70;;;6.63;;
53521;SDS011;39398;48.382;9.802;2022-09-14T05:37:51;8.65;;;6.30;;
53521;SDS011;39398;48.382;9.802;2022-09-14T05:38:52;13.48;;;6.63;;
53521;SDS011;39398;48.382;9.802;2022-09-14T05:39:53;10.30;;;6.53;;
53521;SDS011;39398;48.382;9.802;2022-09-14T05:40:55;10.00;;;6.15;;
53521;SDS011;39398;48.382;9.802;2022-09-14T05:41:57;10.13;;;6.50;;
53521;SDS011;39398;48.382;9.802;2022-09-14T05:42:58;8.63;;;6.40;;
53521;SDS011;39398;48.382;9.802;2022-09-14T05:44:00;9.27;;;6.30;;
53521;SDS011;39398;48.382;9.802;2022-09-14T05:45:01;11.95;;;7.10;;
53521;SDS011;39398;48.382;9.802;2022-09-14T05:46:04;12.18;;;6.82;;
53521;SDS011;39398;48.382;9.802;2022-09-14T05:47:07;10.85;;;6.90;;
53521;SDS011;39398;48.382;9.802;2022-09-14T05:48:08;10.25;;;6.93;;
53521;SDS011;39398;48.382;9.802;2022-09-14T05:49:09;9.75;;;6.72;;
53521;SDS011;39398;48.382;9.802;2022-09-14T05:50:11;9.13;;;6.50;;
53521;SDS011;39398;48.382;9.802;2022-09-14T05:51:15;12.30;;;6.75;;
53521;SDS011;39398;48.382;9.802;2022-09-14T05:52:18;11.05;;;6.63;;
53521;SDS011;39398;48.382;9.802;2022-09-14T05:53:19;11.25;;;7.10;;
53521;SDS011;39398;48.382;9.802;2022-09-14T05:54:20;11.05;;;7.00;;
53521;SDS011;39398;48.382;9.802;2022-09-14T05:55:22;10.38;;;6.70;;
53521;SDS011;39398;48.382;9.802;2022-09-14T05:56:24;10.35;;;6.55;;
53521;SDS011;39398;48.382;9.802;2022-09-14T05:57:27;10.40;;;6.85;;
53521;SDS011;39398;48.382;9.802;2022-09-14T05:58:28;8.75;;;6.13;;
53521;SDS011;39398;48.382;9.802;2022-09-14T05:59:30;9.15;;;6.10;;
53521;SDS011;39398;48.382;9.802;2022-09-14T06:00:32;11.82;;;6.32;;
53521;SDS011;39398;48.382;9.802;2022-09-14T06:01:33;10.57;;;6.20;;
53521;SDS011;39398;48.382;9.802;2022-09-14T06:02:35;12.13;;;5.85;;
53521;SDS011;39398;48.382;9.802;2022-09-14T06:03:36;9.68;;;6.30;;
53521;SDS011;39398;48.382;9.802;2022-09-14T06:04:38;9.15;;;5.90;;
53521;SDS011;39398;48.382;9.802;2022-09-14T06:05:39;10.32;;;5.70;;
53521;SDS011;39398;48.382;9.802;2022-09-14T06:06:42;8.95;;;5.53;;
53521;SDS011;39398;48.382;9.802;2022-09-14T06:08:04;6.63;;;5.07;;
53521;SDS011;39398;48.382;9.802;2022-09-14T06:09:05;7.15;;;4.88;;
53521;SDS011;39398;48.382;9.802;2022-09-14T06:10:07;7.05;;;4.97;;
53521;SDS011;39398;48.382;9.802;2022-09-14T06:11:09;6.93;;;5.15;;
53521;SDS011;39398;48.382;9.802;2022-09-14T06:12:12;10.57;;;4.97;;
53521;SDS011;39398;48.382;9.802;2022-09-14T06:13:13;6.65;;;4.93;;
53521;SDS011;39398;48.382;9.802;2022-09-14T06:14:15;9.27;;;4.85;;
53521;SDS011;39398;48.382;9.802;2022-09-14T06:15:16;7.70;;;5.28;;
53521;SDS011;39398;48.382;9.802;2022-09-14T06:16:18;8.20;;;5.05;;
53521;SDS011;39398;48.382;9.802;2022-09-14T06:17:21;7.05;;;4.90;;
53521;SDS011;39398;48.382;9.802;2022-09-14T06:18:23;6.75;;;4.65;;
53521;SDS011;39398;48.382;9.802;2022-09-14T06:19:24;7.57;;;4.53;;
53521;SDS011;39398;48.382;9.802;2022-09-14T06:20:26;9.45;;;4.90;;
53521;SDS011;39398;48.382;9.802;2022-09-14T06:21:28;6.70;;;4.75;;
53521;SDS011;39398;48.382;9.802;2022-09-14T06:22:32;8.30;;;4.03;;
53521;SDS011;39398;48.382;9.802;2022-09-14T06:23:33;9.13;;;4.93;;
53521;SDS011;39398;48.382;9.802;2022-09-14T06:24:35;6.15;;;4.00;;
53521;SDS011;39398;48.382;9.802;2022-09-14T06:25:36;7.72;;;4.10;;